sensor_id;sensor_type;location;lat;lon;timestamp;P1;durP1;ratioP1;P2;durP2;ratioP2
74789;SDS011;63318;52.406;13.416;2023-06-10T00:02:14;9.00;;;3.50;;
74789;SDS011;63318;52.406;13.416;2023-06-10T00:04:43;8.20;;;3.80;;
74789;SDS011;63318;52.406;13.416;2023-06-10T00:07:11;13.80;;;4.10;;
74789;SDS011;63318;52.406;13.416;2023-06-10T00:09:39;8.00;;;3.40;;
74789;SDS011;63318;52.406;13.416;2023-06-10T00:12:08;11.90;;;4.00;;
74789;SDS011;63318;52.406;13.416;2023-06-10T00:14:37;10.20;;;3.10;;
74789;SDS011;63318;52.406;13.416;2023-06-10T00:17:06;7.60;;;3.80;;
74789;SDS011;63318;52.406;13.416;2023-06-10T00:19:34;7.40;;;3.60;;
74789;SDS011;63318;52.406;13.416;2023-06-10T00:22:02;11.60;;;3.40;;
74789;SDS011;63318;52.406;13.416;2023-06-10T00:24:31;10.00;;;3.60;;
74789;SDS011;63318;52.406;13.416;2023-06-10T00:26:59;9.50;;;3.60;;
74789;SDS011;63318;52.406;13.416;2023-06-10T00:29:27;9.30;;;3.30;;
74789;SDS011;63318;52.406;13.416;2023-06-10T00:31:55;8.50;;;3.80;;
74789;SDS011;63318;52.406;13.416;2023-06-10T00:34:24;13.30;;;3.80;;
74789;SDS011;63318;52.406;13.416;2023-06-10T00:36:52;7.80;;;3.20;;
74789;SDS011;63318;52.406;13.416;2023-06-10T00:39:20;9.80;;;3.70;;
74789;SDS011;63318;52.406;13.416;2023-06-10T00:41:48;10.50;;;3.90;;
74789;SDS011;63318;52.406;13.416;2023-06-10T00:44:17;8.60;;;3.60;;
74789;SDS011;63318;52.406;13.416;2023-06-10T00:46:45;8.30;;;3.70;;
74789;SDS011;63318;52.406;13.416;2023-06-10T00:49:13;8.60;;;3.70;;
74789;SDS011;63318;52.406;13.416;2023-06-10T00:51:42;8.90;;;5.00;;
74789;SDS011;63318;52.406;13.416;2023-06-10T00:54:10;8.50;;;3.80;;
74789;SDS011;63318;52.406;13.416;2023-06-10T00:56:38;8.40;;;3.50;;
74789;SDS011;63318;52.406;13.416;2023-06-10T00:59:06;10.50;;;3.90;;
74789;SDS011;63318;52.406;13.416;2023-06-10T01:01:35;14.50;;;4.10;;
74789;SDS011;63318;52.406;13.416;2023-06-10T01:04:03;9.00;;;3.90;;
74789;SDS011;63318;52.406;13.416;2023-06-10T01:06:35;12.20;;;4.20;;
74789;SDS011;63318;52.406;13.416;2023-06-10T01:09:13;12.00;;;3.90;;
74789;SDS011;63318;52.406;13.416;2023-06-10T01:11:51;9.00;;;3.90;;
74789;SDS011;63318;52.406;13.416;2023-06-10T01:14:23;10.80;;;4.60;;
74789;SDS011;63318;52.406;13.416;2023-06-10T01:16:52;11.90;;;4.50;;
74789;SDS011;63318;52.406;13.416;2023-06-10T01:19:21;7.80;;;4.40;;
74789;SDS011;63318;52.406;13.416;2023-06-10T01:21:49;8.50;;;3.90;;
74789;SDS011;63318;52.406;13.416;2023-06-10T01:24:17;7.70;;;3.90;;
74789;SDS011;63318;52.406;13.416;2023-06-10T01:26:47;8.90;;;3.90;;
74789;SDS011;63318;52.406;13.416;2023-06-10T01:29:18;9.30;;;4.00;;
74789;SDS011;63318;52.406;13.416;2023-06-10T01:31:54;10.70;;;4.10;;
74789;SDS011;63318;52.406;13.416;2023-06-10T01:34:27;11.00;;;4.40;;
74789;SDS011;63318;52.406;13.416;2023-06-10T01:36:57;7.90;;;4.10;;
74789;SDS011;63318;52.406;13.416;2023-06-10T01:39:26;9.80;;;4.20;;
74789;SDS011;63318;52.406;13.416;2023-06-10T01:41:55;10.20;;;3.80;;
74789;SDS011;63318;52.406;13.416;2023-06-10T01:44:24;8.50;;;4.00;;
74789;SDS011;63318;52.406;13.416;2023-06-10T01:46:52;11.20;;;4.00;;
74789;SDS011;63318;52.406;13.416;2023-06-10T01:49:20;13.60;;;4.80;;
74789;SDS011;63318;52.406;13.416;2023-06-10T01:51:49;11.30;;;3.90;;
74789;SDS011;63318;52.406;13.416;2023-06-10T01:54:17;7.70;;;3.70;;
74789;SDS011;63318;52.406;13.416;2023-06-10T01:56:45;10.20;;;4.50;;
74789;SDS011;63318;52.406;13.416;2023-06-10T01:59:13;7.90;;;3.90;;
74789;SDS011;63318;52.406;13.416;2023-06-10T02:01:41;9.10;;;4.20;;
74789;SDS011;63318;52.406;13.416;2023-06-10T02:04:10;9.90;;;3.70;;
74789;SDS011;63318;52.406;13.416;2023-06-10T02:06:38;9.20;;;4.10;;
74789;SDS011;63318;52.406;13.416;2023-06-10T02:09:06;11.30;;;4.10;;
74789;SDS011;63318;52.406;13.416;2023-06-10T02:11:34;10.00;;;3.90;;
74789;SDS011;63318;52.406;13.416;2023-06-10T02:14:03;8.70;;;4.10;;
74789;SDS011;63318;52.406;13.416;2023-06-10T02:16:31;11.40;;;3.80;;
74789;SDS011;63318;52.406;13.416;2023-06-10T02:18:59;10.90;;;4.10;;
74789;SDS011;63318;52.406;13.416;2023-06-10T02:21:28;8.30;;;4.20;;
74789;SDS011;63318;52.406;13.416;2023-06-10T02:23:56;10.50;;;4.40;;
74789;SDS011;63318;52.406;13.416;2023-06-10T02:26:24;11.00;;;4.20;;
74789;SDS011;63318;52.406;13.416;2023-06-10T02:28:52;9.50;;;4.00;;
74789;SDS011;63318;52.406;13.416;2023-06-10T02:31:21;16.20;;;5.90;;
74789;SDS011;63318;52.406;13.416;2023-06-10T02:33:49;11.30;;;4.30;;
74789;SDS011;63318;52.406;13.416;2023-06-10T02:36:17;9.60;;;3.70;;
74789;SDS011;63318;52.406;13.416;2023-06-10T02:38:45;9.10;;;4.40;;
74789;SDS011;63318;52.406;13.416;2023-06-10T02:41:14;11.50;;;4.20;;
74789;SDS011;63318;52.406;13.416;2023-06-10T02:43:42;7.60;;;3.90;;
74789;SDS011;63318;52.406;13.416;2023-06-10T02:46:10;12.10;;;4.40;;
74789;SDS011;63318;52.406;13.416;2023-06-10T02:48:41;6.70;;;3.90;;
74789;SDS011;63318;52.406;13.416;2023-06-10T02:51:10;10.30;;;4.10;;
74789;SDS011;63318;52.406;13.416;2023-06-10T02:53:38;9.30;;;4.10;;
74789;SDS011;63318;52.406;13.416;2023-06-10T02:56:07;11.30;;;4.20;;
74789;SDS011;63318;52.406;13.416;2023-06-10T02:58:35;7.90;;;4.10;;
74789;SDS011;63318;52.406;13.416;2023-06-10T03:01:03;8.90;;;3.80;;
74789;SDS011;63318;52.406;13.416;2023-06-10T03:03:31;8.30;;;3.90;;
74789;SDS011;63318;52.406;13.416;2023-06-10T03:06:00;11.50;;;5.30;;
74789;SDS011;63318;52.406;13.416;2023-06-10T03:08:28;9.40;;;4.10;;
74789;SDS011;63318;52.406;13.416;2023-06-10T03:10:56;9.30;;;4.40;;
74789;SDS011;63318;52.406;13.416;2023-06-10T03:13:24;12.60;;;4.20;;
74789;SDS011;63318;52.406;13.416;2023-06-10T03:15:53;9.80;;;3.90;;
74789;SDS011;63318;52.406;13.416;2023-06-10T03:18:21;11.60;;;4.90;;
74789;SDS011;63318;52.406;13.416;2023-06-10T03:20:53;10.80;;;4.40;;
74789;SDS011;63318;52.406;13.416;2023-06-10T03:23:21;10.40;;;4.50;;
74789;SDS011;63318;52.406;13.416;2023-06-10T03:25:50;12.50;;;4.50;;
74789;SDS011;63318;52.406;13.416;2023-06-10T03:28:18;10.80;;;4.00;;
74789;SDS011;63318;52.406;13.416;2023-06-10T03:30:47;9.00;;;4.40;;
74789;SDS011;63318;52.406;13.416;2023-06-10T03:33:15;14.50;;;4.40;;
74789;SDS011;63318;52.406;13.416;2023-06-10T03:35:44;10.20;;;4.40;;
74789;SDS011;63318;52.406;13.416;2023-06-10T03:38:12;10.00;;;4.30;;
74789;SDS011;63318;52.406;13.416;2023-06-10T03:40:40;12.00;;;5.20;;
74789;SDS011;63318;52.406;13.416;2023-06-10T03:43:08;10.10;;;5.00;;
74789;SDS011;63318;52.406;13.416;2023-06-10T03:45:37;11.60;;;4.50;;
74789;SDS011;63318;52.406;13.416;2023-06-10T03:48:05;9.70;;;4.30;;
74789;SDS011;63318;52.406;13.416;2023-06-10T03:50:34;12.60;;;4.60;;
74789;SDS011;63318;52.406;13.416;2023-06-10T03:53:02;11.90;;;4.10;;
74789;SDS011;63318;52.406;13.416;2023-06-10T03:55:30;13.30;;;4.80;;
74789;SDS011;63318;52.406;13.416;2023-06-10T03:57:59;10.00;;;4.60;;
74789;SDS011;63318;52.406;13.416;2023-06-10T04:00:27;11.70;;;4.90;;
74789;SDS011;63318;52.406;13.416;2023-06-10T04:02:56;9.70;;;4.40;;
74789;SDS011;63318;52.406;13.416;2023-06-10T04:05:24;9.30;;;4.40;;
74789;SDS011;63318;52.406;13.416;2023-06-10T04:07:52;11.00;;;4.50;;
74789;SDS011;63318;52.406;13.416;2023-06-10T04:10:21;7.30;;;3.90;;
74789;SDS011;63318;52.406;13.416;2023-06-10T04:12:49;11.00;;;4.80;;
74789;SDS011;63318;52.406;13.416;2023-06-10T04:15:17;15.10;;;4.50;;
74789;SDS011;63318;52.406;13.416;2023-06-10T04:17:46;9.70;;;4.40;;
74789;SDS011;63318;52.406;13.416;2023-06-10T04:20:14;9.20;;;3.90;;
74789;SDS011;63318;52.406;13.416;2023-06-10T04:22:42;9.00;;;4.80;;
74789;SDS011;63318;52.406;13.416;2023-06-10T04:25:10;8.50;;;4.60;;
74789;SDS011;63318;52.406;13.416;2023-06-10T04:27:39;11.20;;;4.70;;
74789;SDS011;63318;52.406;13.416;2023-06-10T04:30:08;10.10;;;4.70;;
74789;SDS011;63318;52.406;13.416;2023-06-10T04:32:37;11.50;;;4.70;;
74789;SDS011;63318;52.406;13.416;2023-06-10T04:35:07;11.50;;;4.60;;
74789;SDS011;63318;52.406;13.416;2023-06-10T04:37:38;14.30;;;4.60;;
74789;SDS011;63318;52.406;13.416;2023-06-10T04:40:07;11.00;;;4.60;;
74789;SDS011;63318;52.406;13.416;2023-06-10T04:42:36;9.60;;;4.80;;
74789;SDS011;63318;52.406;13.416;2023-06-10T04:45:05;12.80;;;4.50;;
74789;SDS011;63318;52.406;13.416;2023-06-10T04:47:35;12.70;;;4.70;;
74789;SDS011;63318;52.406;13.416;2023-06-10T04:50:04;11.70;;;5.10;;
74789;SDS011;63318;52.406;13.416;2023-06-10T04:52:34;10.10;;;4.30;;
74789;SDS011;63318;52.406;13.416;2023-06-10T04:55:02;8.10;;;4.20;;
74789;SDS011;63318;52.406;13.416;2023-06-10T04:57:31;8.50;;;4.10;;
74789;SDS011;63318;52.406;13.416;2023-06-10T05:00:00;12.70;;;5.20;;
74789;SDS011;63318;52.406;13.416;2023-06-10T05:02:29;10.30;;;4.60;;
74789;SDS011;63318;52.406;13.416;2023-06-10T05:04:57;10.90;;;5.40;;
74789;SDS011;63318;52.406;13.416;2023-06-10T05:07:25;9.80;;;4.90;;
74789;SDS011;63318;52.406;13.416;2023-06-10T05:09:54;13.40;;;4.80;;
74789;SDS011;63318;52.406;13.416;2023-06-10T05:12:22;9.60;;;5.00;;
74789;SDS011;63318;52.406;13.416;2023-06-10T05:14:50;12.10;;;4.70;;
74789;SDS011;63318;52.406;13.416;2023-06-10T05:17:19;12.50;;;4.70;;
74789;SDS011;63318;52.406;13.416;2023-06-10T05:19:47;11.00;;;5.50;;
74789;SDS011;63318;52.406;13.416;2023-06-10T05:22:15;10.30;;;4.60;;
74789;SDS011;63318;52.406;13.416;2023-06-10T05:24:44;9.50;;;4.50;;
74789;SDS011;63318;52.406;13.416;2023-06-10T05:27:12;15.50;;;5.50;;
74789;SDS011;63318;52.406;13.416;2023-06-10T05:29:40;11.30;;;5.10;;
74789;SDS011;63318;52.406;13.416;2023-06-10T05:32:09;9.10;;;4.40;;
74789;SDS011;63318;52.406;13.416;2023-06-10T05:34:37;11.50;;;4.80;;
74789;SDS011;63318;52.406;13.416;2023-06-10T05:37:06;11.20;;;5.00;;
74789;SDS011;63318;52.406;13.416;2023-06-10T05:39:34;11.90;;;5.00;;
74789;SDS011;63318;52.406;13.416;2023-06-10T05:42:03;11.30;;;5.20;;
74789;SDS011;63318;52.406;13.416;2023-06-10T05:44:33;10.70;;;4.30;;
74789;SDS011;63318;52.406;13.416;2023-06-10T05:47:01;11.60;;;5.00;;
74789;SDS011;63318;52.406;13.416;2023-06-10T05:49:30;10.60;;;4.70;;
74789;SDS011;63318;52.406;13.416;2023-06-10T05:51:58;11.10;;;4.90;;
74789;SDS011;63318;52.406;13.416;2023-06-10T05:54:26;10.40;;;5.10;;
74789;SDS011;63318;52.406;13.416;2023-06-10T05:56:55;9.50;;;5.00;;
74789;SDS011;63318;52.406;13.416;2023-06-10T05:59:23;9.70;;;4.60;;
74789;SDS011;63318;52.406;13.416;2023-06-10T06:01:51;11.90;;;5.20;;
74789;SDS011;63318;52.406;13.416;2023-06-10T06:04:19;12.60;;;5.10;;
74789;SDS011;63318;52.406;13.416;2023-06-10T06:06:47;10.90;;;5.10;;
74789;SDS011;63318;52.406;13.416;2023-06-10T06:09:16;12.30;;;5.40;;
74789;SDS011;63318;52.406;13.416;2023-06-10T06:11:44;12.70;;;5.00;;
74789;SDS011;63318;52.406;13.416;2023-06-10T06:14:12;9.50;;;5.20;;
74789;SDS011;63318;52.406;13.416;2023-06-10T06:16:40;8.50;;;4.80;;
74789;SDS011;63318;52.406;13.416;2023-06-10T06:19:09;11.90;;;6.10;;
74789;SDS011;63318;52.406;13.416;2023-06-10T06:21:37;11.40;;;5.00;;
74789;SDS011;63318;52.406;13.416;2023-06-10T06:24:06;9.60;;;5.00;;
74789;SDS011;63318;52.406;13.416;2023-06-10T06:26:35;11.90;;;4.90;;
74789;SDS011;63318;52.406;13.416;2023-06-10T06:29:03;11.00;;;4.90;;
74789;SDS011;63318;52.406;13.416;2023-06-10T06:31:31;14.30;;;5.70;;
74789;SDS011;63318;52.406;13.416;2023-06-10T06:34:00;11.60;;;5.70;;
74789;SDS011;63318;52.406;13.416;2023-06-10T06:36:28;10.80;;;5.80;;
74789;SDS011;63318;52.406;13.416;2023-06-10T06:38:56;10.30;;;5.90;;
74789;SDS011;63318;52.406;13.416;2023-06-10T06:41:25;11.90;;;6.00;;
74789;SDS011;63318;52.406;13.416;2023-06-10T06:43:54;10.40;;;5.90;;
74789;SDS011;63318;52.406;13.416;2023-06-10T06:46:23;11.30;;;5.50;;
74789;SDS011;63318;52.406;13.416;2023-06-10T06:48:51;12.00;;;6.20;;
74789;SDS011;63318;52.406;13.416;2023-06-10T06:51:19;12.60;;;5.70;;
74789;SDS011;63318;52.406;13.416;2023-06-10T06:53:47;10.40;;;5.70;;
74789;SDS011;63318;52.406;13.416;2023-06-10T06:56:16;14.50;;;6.60;;
74789;SDS011;63318;52.406;13.416;2023-06-10T06:58:44;11.70;;;6.10;;
74789;SDS011;63318;52.406;13.416;2023-06-10T07:01:12;10.20;;;6.40;;
74789;SDS011;63318;52.406;13.416;2023-06-10T07:03:40;10.80;;;6.30;;
74789;SDS011;63318;52.406;13.416;2023-06-10T07:06:09;8.30;;;5.90;;
74789;SDS011;63318;52.406;13.416;2023-06-10T07:08:38;11.60;;;5.40;;
74789;SDS011;63318;52.406;13.416;2023-06-10T07:11:06;14.70;;;6.20;;
74789;SDS011;63318;52.406;13.416;2023-06-10T07:13:35;8.10;;;5.70;;
74789;SDS011;63318;52.406;13.416;2023-06-10T07:16:03;10.70;;;5.90;;
74789;SDS011;63318;52.406;13.416;2023-06-10T07:18:31;9.90;;;5.70;;
74789;SDS011;63318;52.406;13.416;2023-06-10T07:21:00;10.80;;;5.40;;
74789;SDS011;63318;52.406;13.416;2023-06-10T07:23:28;12.90;;;5.90;;
74789;SDS011;63318;52.406;13.416;2023-06-10T07:25:56;9.80;;;5.20;;
74789;SDS011;63318;52.406;13.416;2023-06-10T07:28:24;9.30;;;6.10;;
74789;SDS011;63318;52.406;13.416;2023-06-10T07:30:53;12.60;;;5.60;;
74789;SDS011;63318;52.406;13.416;2023-06-10T07:33:21;15.00;;;5.10;;
74789;SDS011;63318;52.406;13.416;2023-06-10T07:35:49;9.70;;;5.70;;
74789;SDS011;63318;52.406;13.416;2023-06-10T07:38:18;13.20;;;5.50;;
74789;SDS011;63318;52.406;13.416;2023-06-10T07:40:46;15.70;;;6.10;;
74789;SDS011;63318;52.406;13.416;2023-06-10T07:43:15;10.10;;;5.70;;
74789;SDS011;63318;52.406;13.416;2023-06-10T07:45:43;8.30;;;5.10;;
74789;SDS011;63318;52.406;13.416;2023-06-10T07:48:12;9.70;;;5.50;;
74789;SDS011;63318;52.406;13.416;2023-06-10T07:50:40;12.80;;;5.70;;
74789;SDS011;63318;52.406;13.416;2023-06-10T07:53:08;10.80;;;5.60;;
74789;SDS011;63318;52.406;13.416;2023-06-10T07:55:36;11.20;;;6.00;;
74789;SDS011;63318;52.406;13.416;2023-06-10T07:58:04;9.90;;;5.30;;
74789;SDS011;63318;52.406;13.416;2023-06-10T08:00:33;9.00;;;5.50;;
74789;SDS011;63318;52.406;13.416;2023-06-10T08:03:01;8.80;;;5.30;;
74789;SDS011;63318;52.406;13.416;2023-06-10T08:05:29;10.80;;;5.90;;
74789;SDS011;63318;52.406;13.416;2023-06-10T08:07:57;8.50;;;5.30;;
74789;SDS011;63318;52.406;13.416;2023-06-10T08:10:26;10.90;;;5.70;;
74789;SDS011;63318;52.406;13.416;2023-06-10T08:12:54;8.70;;;5.70;;
74789;SDS011;63318;52.406;13.416;2023-06-10T08:15:22;9.50;;;5.70;;
74789;SDS011;63318;52.406;13.416;2023-06-10T08:17:50;14.10;;;5.70;;
74789;SDS011;63318;52.406;13.416;2023-06-10T08:20:19;10.90;;;6.10;;
74789;SDS011;63318;52.406;13.416;2023-06-10T08:22:47;8.40;;;5.30;;
74789;SDS011;63318;52.406;13.416;2023-06-10T08:25:15;7.90;;;5.50;;
74789;SDS011;63318;52.406;13.416;2023-06-10T08:27:43;11.20;;;5.10;;
74789;SDS011;63318;52.406;13.416;2023-06-10T08:30:12;12.00;;;5.40;;
74789;SDS011;63318;52.406;13.416;2023-06-10T08:32:40;10.70;;;5.30;;
74789;SDS011;63318;52.406;13.416;2023-06-10T08:35:09;7.70;;;5.30;;
74789;SDS011;63318;52.406;13.416;2023-06-10T08:37:37;11.20;;;5.30;;
74789;SDS011;63318;52.406;13.416;2023-06-10T08:40:07;8.70;;;6.10;;
74789;SDS011;63318;52.406;13.416;2023-06-10T08:42:39;11.10;;;5.60;;
74789;SDS011;63318;52.406;13.416;2023-06-10T08:45:10;8.10;;;5.20;;
74789;SDS011;63318;52.406;13.416;2023-06-10T08:47:44;9.00;;;5.20;;
74789;SDS011;63318;52.406;13.416;2023-06-10T08:50:15;10.30;;;5.20;;
74789;SDS011;63318;52.406;13.416;2023-06-10T08:52:45;11.10;;;5.20;;
74789;SDS011;63318;52.406;13.416;2023-06-10T08:55:16;8.70;;;5.30;;
74789;SDS011;63318;52.406;13.416;2023-06-10T08:57:49;10.10;;;5.70;;
74789;SDS011;63318;52.406;13.416;2023-06-10T09:00:18;7.40;;;5.30;;
74789;SDS011;63318;52.406;13.416;2023-06-10T09:02:46;9.10;;;4.90;;
74789;SDS011;63318;52.406;13.416;2023-06-10T09:05:15;10.00;;;5.70;;
74789;SDS011;63318;52.406;13.416;2023-06-10T09:07:45;7.20;;;5.20;;
74789;SDS011;63318;52.406;13.416;2023-06-10T09:10:14;10.10;;;5.10;;
74789;SDS011;63318;52.406;13.416;2023-06-10T09:12:43;11.40;;;5.40;;
74789;SDS011;63318;52.406;13.416;2023-06-10T09:15:11;9.20;;;5.30;;
74789;SDS011;63318;52.406;13.416;2023-06-10T09:17:40;11.50;;;5.30;;
74789;SDS011;63318;52.406;13.416;2023-06-10T09:20:09;10.50;;;5.50;;
74789;SDS011;63318;52.406;13.416;2023-06-10T09:22:37;10.20;;;5.60;;
74789;SDS011;63318;52.406;13.416;2023-06-10T09:25:08;11.10;;;5.00;;
74789;SDS011;63318;52.406;13.416;2023-06-10T09:27:45;7.40;;;5.00;;
74789;SDS011;63318;52.406;13.416;2023-06-10T09:30:20;7.50;;;4.70;;
74789;SDS011;63318;52.406;13.416;2023-06-10T09:32:52;8.80;;;4.80;;
74789;SDS011;63318;52.406;13.416;2023-06-10T09:35:21;6.70;;;4.80;;
74789;SDS011;63318;52.406;13.416;2023-06-10T09:37:51;10.00;;;5.70;;
74789;SDS011;63318;52.406;13.416;2023-06-10T09:40:20;9.00;;;5.40;;
74789;SDS011;63318;52.406;13.416;2023-06-10T09:42:52;7.40;;;4.90;;
74789;SDS011;63318;52.406;13.416;2023-06-10T09:45:21;7.30;;;4.90;;
74789;SDS011;63318;52.406;13.416;2023-06-10T09:47:54;8.80;;;5.40;;
74789;SDS011;63318;52.406;13.416;2023-06-10T09:50:22;7.80;;;5.20;;
74789;SDS011;63318;52.406;13.416;2023-06-10T09:52:51;8.50;;;5.50;;
74789;SDS011;63318;52.406;13.416;2023-06-10T09:55:19;9.00;;;4.80;;
74789;SDS011;63318;52.406;13.416;2023-06-10T09:57:52;7.20;;;4.90;;
74789;SDS011;63318;52.406;13.416;2023-06-10T10:00:21;10.30;;;4.40;;
74789;SDS011;63318;52.406;13.416;2023-06-10T10:02:52;10.30;;;5.10;;
74789;SDS011;63318;52.406;13.416;2023-06-10T10:05:20;8.60;;;4.80;;
74789;SDS011;63318;52.406;13.416;2023-06-10T10:07:49;7.10;;;4.40;;
74789;SDS011;63318;52.406;13.416;2023-06-10T10:10:18;8.20;;;4.50;;
74789;SDS011;63318;52.406;13.416;2023-06-10T10:12:47;8.90;;;4.90;;
74789;SDS011;63318;52.406;13.416;2023-06-10T10:15:17;7.80;;;4.60;;
74789;SDS011;63318;52.406;13.416;2023-06-10T10:17:48;10.10;;;4.70;;
74789;SDS011;63318;52.406;13.416;2023-06-10T10:20:20;9.60;;;4.60;;
74789;SDS011;63318;52.406;13.416;2023-06-10T10:22:57;8.90;;;4.50;;
74789;SDS011;63318;52.406;13.416;2023-06-10T10:25:29;8.70;;;4.60;;
74789;SDS011;63318;52.406;13.416;2023-06-10T10:28:02;7.50;;;4.40;;
74789;SDS011;63318;52.406;13.416;2023-06-10T10:30:35;8.10;;;4.90;;
74789;SDS011;63318;52.406;13.416;2023-06-10T10:33:08;8.50;;;5.00;;
74789;SDS011;63318;52.406;13.416;2023-06-10T10:35:39;7.00;;;4.60;;
74789;SDS011;63318;52.406;13.416;2023-06-10T10:38:07;9.90;;;5.10;;
74789;SDS011;63318;52.406;13.416;2023-06-10T10:40:37;8.50;;;4.30;;
74789;SDS011;63318;52.406;13.416;2023-06-10T10:43:07;7.60;;;4.60;;
74789;SDS011;63318;52.406;13.416;2023-06-10T10:45:36;12.60;;;4.80;;
74789;SDS011;63318;52.406;13.416;2023-06-10T10:48:07;7.70;;;4.90;;
74789;SDS011;63318;52.406;13.416;2023-06-10T10:50:36;6.10;;;4.50;;
74789;SDS011;63318;52.406;13.416;2023-06-10T10:53:05;6.10;;;4.00;;
74789;SDS011;63318;52.406;13.416;2023-06-10T10:55:33;6.70;;;4.30;;
74789;SDS011;63318;52.406;13.416;2023-06-10T10:58:04;7.90;;;4.30;;
74789;SDS011;63318;52.406;13.416;2023-06-10T11:00:33;9.00;;;4.40;;
74789;SDS011;63318;52.406;13.416;2023-06-10T11:03:06;8.00;;;3.90;;
74789;SDS011;63318;52.406;13.416;2023-06-10T11:05:39;6.00;;;3.70;;
74789;SDS011;63318;52.406;13.416;2023-06-10T11:08:08;6.00;;;4.90;;
74789;SDS011;63318;52.406;13.416;2023-06-10T11:10:37;5.00;;;4.00;;
74789;SDS011;63318;52.406;13.416;2023-06-10T11:13:07;6.40;;;4.30;;
74789;SDS011;63318;52.406;13.416;2023-06-10T11:15:40;8.20;;;4.50;;
74789;SDS011;63318;52.406;13.416;2023-06-10T11:18:18;6.10;;;4.00;;
74789;SDS011;63318;52.406;13.416;2023-06-10T11:20:52;6.80;;;4.00;;
74789;SDS011;63318;52.406;13.416;2023-06-10T11:23:32;6.50;;;3.90;;
74789;SDS011;63318;52.406;13.416;2023-06-10T11:26:11;6.10;;;3.80;;
74789;SDS011;63318;52.406;13.416;2023-06-10T11:29:02;6.30;;;4.00;;
74789;SDS011;63318;52.406;13.416;2023-06-10T11:31:32;6.50;;;3.90;;
74789;SDS011;63318;52.406;13.416;2023-06-10T11:34:05;7.30;;;4.00;;
74789;SDS011;63318;52.406;13.416;2023-06-10T11:36:34;6.90;;;4.50;;
74789;SDS011;63318;52.406;13.416;2023-06-10T11:39:05;8.10;;;4.50;;
74789;SDS011;63318;52.406;13.416;2023-06-10T11:41:34;7.00;;;3.80;;
74789;SDS011;63318;52.406;13.416;2023-06-10T11:44:04;6.80;;;4.30;;
74789;SDS011;63318;52.406;13.416;2023-06-10T11:49:02;9.70;;;3.70;;
74789;SDS011;63318;52.406;13.416;2023-06-10T11:51:33;8.60;;;5.80;;
74789;SDS011;63318;52.406;13.416;2023-06-10T11:56:31;7.90;;;4.60;;
74789;SDS011;63318;52.406;13.416;2023-06-10T11:59:00;6.00;;;4.00;;
74789;SDS011;63318;52.406;13.416;2023-06-10T12:01:29;6.20;;;4.50;;
74789;SDS011;63318;52.406;13.416;2023-06-10T12:04:02;8.90;;;3.80;;
74789;SDS011;63318;52.406;13.416;2023-06-10T12:06:44;5.90;;;3.80;;
74789;SDS011;63318;52.406;13.416;2023-06-10T12:09:20;6.70;;;4.30;;
74789;SDS011;63318;52.406;13.416;2023-06-10T12:11:50;8.70;;;4.70;;
74789;SDS011;63318;52.406;13.416;2023-06-10T12:17:20;8.60;;;5.60;;
74789;SDS011;63318;52.406;13.416;2023-06-10T12:19:49;6.30;;;3.40;;
74789;SDS011;63318;52.406;13.416;2023-06-10T12:22:17;4.90;;;3.50;;
74789;SDS011;63318;52.406;13.416;2023-06-10T12:24:56;6.60;;;3.60;;
74789;SDS011;63318;52.406;13.416;2023-06-10T12:27:25;8.60;;;3.50;;
74789;SDS011;63318;52.406;13.416;2023-06-10T12:29:54;7.10;;;3.80;;
74789;SDS011;63318;52.406;13.416;2023-06-10T12:32:22;5.60;;;4.00;;
74789;SDS011;63318;52.406;13.416;2023-06-10T12:35:03;7.50;;;4.00;;
74789;SDS011;63318;52.406;13.416;2023-06-10T12:37:33;6.30;;;3.80;;
74789;SDS011;63318;52.406;13.416;2023-06-10T12:40:02;5.70;;;3.90;;
74789;SDS011;63318;52.406;13.416;2023-06-10T12:42:32;7.40;;;4.10;;
74789;SDS011;63318;52.406;13.416;2023-06-10T12:45:01;7.20;;;4.30;;
74789;SDS011;63318;52.406;13.416;2023-06-10T12:47:31;7.80;;;4.80;;
74789;SDS011;63318;52.406;13.416;2023-06-10T12:50:00;8.90;;;4.50;;
74789;SDS011;63318;52.406;13.416;2023-06-10T12:52:29;7.60;;;4.40;;
74789;SDS011;63318;52.406;13.416;2023-06-10T12:54:57;6.50;;;4.60;;
74789;SDS011;63318;52.406;13.416;2023-06-10T12:57:26;12.40;;;4.80;;
74789;SDS011;63318;52.406;13.416;2023-06-10T12:59:54;5.70;;;4.40;;
74789;SDS011;63318;52.406;13.416;2023-06-10T13:02:22;7.90;;;5.20;;
74789;SDS011;63318;52.406;13.416;2023-06-10T13:04:50;8.90;;;4.50;;
74789;SDS011;63318;52.406;13.416;2023-06-10T13:07:19;7.40;;;4.90;;
74789;SDS011;63318;52.406;13.416;2023-06-10T13:09:47;7.50;;;4.80;;
74789;SDS011;63318;52.406;13.416;2023-06-10T13:12:15;7.30;;;4.30;;
74789;SDS011;63318;52.406;13.416;2023-06-10T13:14:44;8.40;;;4.60;;
74789;SDS011;63318;52.406;13.416;2023-06-10T13:17:12;9.70;;;5.10;;
74789;SDS011;63318;52.406;13.416;2023-06-10T13:19:40;7.00;;;4.60;;
74789;SDS011;63318;52.406;13.416;2023-06-10T13:22:08;9.20;;;4.60;;
74789;SDS011;63318;52.406;13.416;2023-06-10T13:24:37;7.60;;;4.50;;
74789;SDS011;63318;52.406;13.416;2023-06-10T13:27:08;9.40;;;4.20;;
74789;SDS011;63318;52.406;13.416;2023-06-10T13:29:37;10.30;;;4.70;;
74789;SDS011;63318;52.406;13.416;2023-06-10T13:32:06;8.20;;;4.90;;
74789;SDS011;63318;52.406;13.416;2023-06-10T13:34:35;7.10;;;4.50;;
74789;SDS011;63318;52.406;13.416;2023-06-10T13:37:04;10.70;;;4.50;;
74789;SDS011;63318;52.406;13.416;2023-06-10T13:39:32;8.90;;;4.20;;
74789;SDS011;63318;52.406;13.416;2023-06-10T13:42:00;7.50;;;4.30;;
74789;SDS011;63318;52.406;13.416;2023-06-10T13:44:28;6.50;;;3.80;;
74789;SDS011;63318;52.406;13.416;2023-06-10T13:46:56;8.30;;;4.10;;
74789;SDS011;63318;52.406;13.416;2023-06-10T13:49:25;8.20;;;3.90;;
74789;SDS011;63318;52.406;13.416;2023-06-10T13:51:53;9.80;;;4.00;;
74789;SDS011;63318;52.406;13.416;2023-06-10T13:54:21;7.20;;;4.00;;
74789;SDS011;63318;52.406;13.416;2023-06-10T13:56:50;7.70;;;4.30;;
74789;SDS011;63318;52.406;13.416;2023-06-10T13:59:19;7.40;;;4.30;;
74789;SDS011;63318;52.406;13.416;2023-06-10T14:01:48;7.50;;;4.40;;
74789;SDS011;63318;52.406;13.416;2023-06-10T14:04:16;9.10;;;4.10;;
74789;SDS011;63318;52.406;13.416;2023-06-10T14:06:45;6.80;;;4.40;;
74789;SDS011;63318;52.406;13.416;2023-06-10T14:09:14;6.50;;;4.00;;
74789;SDS011;63318;52.406;13.416;2023-06-10T14:11:42;6.10;;;3.90;;
74789;SDS011;63318;52.406;13.416;2023-06-10T14:14:10;6.80;;;3.80;;
74789;SDS011;63318;52.406;13.416;2023-06-10T14:16:38;7.10;;;4.00;;
74789;SDS011;63318;52.406;13.416;2023-06-10T14:19:07;7.90;;;3.90;;
74789;SDS011;63318;52.406;13.416;2023-06-10T14:21:35;6.00;;;3.70;;
74789;SDS011;63318;52.406;13.416;2023-06-10T14:24:03;8.10;;;3.70;;
74789;SDS011;63318;52.406;13.416;2023-06-10T14:26:32;7.90;;;4.00;;
74789;SDS011;63318;52.406;13.416;2023-06-10T14:29:00;9.90;;;4.30;;
74789;SDS011;63318;52.406;13.416;2023-06-10T14:31:29;8.30;;;4.20;;
74789;SDS011;63318;52.406;13.416;2023-06-10T14:33:57;7.70;;;4.50;;
74789;SDS011;63318;52.406;13.416;2023-06-10T14:36:25;8.30;;;4.00;;
74789;SDS011;63318;52.406;13.416;2023-06-10T14:38:55;6.50;;;4.00;;
74789;SDS011;63318;52.406;13.416;2023-06-10T14:41:24;5.80;;;3.90;;
74789;SDS011;63318;52.406;13.416;2023-06-10T14:43:52;7.60;;;4.60;;
74789;SDS011;63318;52.406;13.416;2023-06-10T14:46:21;5.40;;;3.90;;
74789;SDS011;63318;52.406;13.416;2023-06-10T14:48:49;8.30;;;4.40;;